Time;durP1;ratioP1;P1;durP2;ratioP2;P2;SDS_P1;SDS_P2;PMS_P1;PMS_P2;Temp;Humidity;BMP_temperature;BMP_pressure;BME280_temperature;BME280_humidity;BME280_pressure;Samples;Min_cycle;Max_cycle;Signal;HPM_P1;HPM_P2
2022/01/21 00:00:25;;;;;;;10.27;2.95;;;3.10;99.90;;;;;;4972994;28;20470;-49
2022/01/21 00:02:50;;;;;;;15.38;3.60;;;3.10;99.90;;;;;;4974021;28;20054;-47
2022/01/21 00:05:16;;;;;;;9.27;3.25;;;3.10;99.90;;;;;;4973135;28;20053;-43
2022/01/21 00:07:41;;;;;;;15.02;4.07;;;3.10;99.90;;;;;;4973977;28;20069;-48
2022/01/21 00:10:08;;;;;;;8.93;2.60;;;3.10;99.90;;;;;;4973039;28;20030;-47
2022/01/21 00:12:35;;;;;;;15.40;4.38;;;3.10;99.90;;;;;;4973993;28;20026;-46
2022/01/21 00:15:01;;;;;;;14.48;2.67;;;3.20;99.90;;;;;;4973874;28;20027;-46
2022/01/21 00:17:27;;;;;;;6.97;2.78;;;3.20;99.90;;;;;;4973904;28;20525;-45
2022/01/21 00:30:04;;;;;;;11.60;3.08;;;3.20;99.90;;;;;;4972984;28;20030;-47
2022/01/21 00:30:50;;;;;;;10.30;3.42;;;3.30;99.90;;;;;;4972621;28;20086;-44
2022/01/21 00:33:15;;;;;;;9.43;3.00;;;3.40;99.90;;;;;;4956319;28;20027;-46
2022/01/21 00:35:40;;;;;;;13.07;3.50;;;3.30;99.90;;;;;;4973571;28;20026;-49
2022/01/21 00:38:06;;;;;;;20.20;3.78;;;3.30;99.90;;;;;;4973490;28;20030;-47
2022/01/21 00:40:33;;;;;;;16.55;4.18;;;3.30;99.90;;;;;;4971696;28;20425;-46
2022/01/21 00:43:14;;;;;;;13.27;3.75;;;3.10;99.90;;;;;;4973222;28;20022;-47
2022/01/21 00:45:40;;;;;;;15.77;4.07;;;3.10;99.90;;;;;;4973429;28;20019;-46
2022/01/21 00:48:06;;;;;;;13.60;3.30;;;2.90;99.90;;;;;;4973083;28;20035;-45
2022/01/21 00:50:32;;;;;;;14.07;4.53;;;2.90;99.90;;;;;;4972316;28;20086;-42
2022/01/21 00:52:57;;;;;;;10.38;3.47;;;2.90;99.90;;;;;;4973271;28;20461;-47
2022/01/21 00:55:23;;;;;;;7.78;3.90;;;2.80;99.90;;;;;;4973183;28;20053;-49
2022/01/21 00:57:48;;;;;;;14.45;4.60;;;2.80;99.90;;;;;;4973520;28;20085;-46
2022/01/21 01:00:15;;;;;;;11.82;5.13;;;2.80;99.90;;;;;;4972254;28;20030;-47
2022/01/21 01:02:41;;;;;;;15.30;4.90;;;2.80;99.90;;;;;;4973291;28;20108;-50
2022/01/21 01:05:08;;;;;;;13.63;4.65;;;2.70;99.90;;;;;;4972981;28;20393;-47
2022/01/21 01:07:34;;;;;;;15.00;4.50;;;2.70;99.90;;;;;;4973105;28;20042;-46
2022/01/21 01:10:02;;;;;;;9.80;4.30;;;2.60;99.90;;;;;;4972141;28;20035;-48
2022/01/21 01:12:52;;;;;;;11.63;4.20;;;2.50;99.90;;;;;;4972962;28;20027;-46
2022/01/21 01:19:56;;;;;;;10.18;4.95;;;2.50;99.90;;;;;;4978001;28;20033;-46
2022/01/21 01:20:47;;;;;;;11.73;4.20;;;2.50;99.90;;;;;;4990196;28;20026;-45
2022/01/21 01:28:41;;;;;;;18.85;4.55;;;2.50;99.90;;;;;;4992456;28;20041;-49
2022/01/21 01:31:06;;;;;;;15.43;4.22;;;2.50;99.90;;;;;;4991381;28;20031;-50
2022/01/21 01:33:38;;;;;;;9.75;4.10;;;2.40;99.90;;;;;;4992392;28;20559;-43
2022/01/21 01:36:06;;;;;;;9.55;4.90;;;2.50;99.90;;;;;;4974836;28;20030;-48
2022/01/21 01:41:03;;;;;;;12.88;4.53;;;2.60;99.90;;;;;;4991442;28;20165;-46
2022/01/21 01:51:28;;;;;;;17.52;4.50;;;2.40;99.90;;;;;;4992706;28;20080;-48
2022/01/21 01:54:04;;;;;;;12.90;4.85;;;2.40;99.90;;;;;;4996151;28;20597;-47
2022/01/21 01:56:34;;;;;;;12.25;4.05;;;2.30;99.90;;;;;;4996061;28;20042;-51
2022/01/21 01:59:00;;;;;;;13.45;5.18;;;2.40;99.90;;;;;;4996223;28;20034;-47
2022/01/21 02:01:25;;;;;;;13.75;5.00;;;2.40;99.90;;;;;;4977348;28;20375;-46
2022/01/21 02:03:51;;;;;;;10.05;5.05;;;2.30;99.90;;;;;;4978597;28;20022;-49
2022/01/21 02:06:16;;;;;;;11.00;5.03;;;2.30;99.90;;;;;;4995825;28;20026;-52
2022/01/21 02:08:42;;;;;;;14.48;4.30;;;2.20;99.90;;;;;;4995617;28;20031;-42
2022/01/21 02:11:08;;;;;;;7.75;4.32;;;2.20;99.90;;;;;;4994724;28;20030;-46
2022/01/21 02:13:41;;;;;;;17.90;4.60;;;2.20;99.90;;;;;;4995639;28;20034;-46
2022/01/21 02:16:30;;;;;;;9.10;4.72;;;2.10;99.90;;;;;;4995766;28;20473;-47
2022/01/21 02:21:43;;;;;;;13.55;4.75;;;2.00;99.90;;;;;;4995750;28;20033;-46
2022/01/21 02:24:16;;;;;;;11.93;4.22;;;2.00;99.90;;;;;;4995447;28;20409;-49
2022/01/21 02:26:42;;;;;;;17.63;5.35;;;1.90;99.90;;;;;;4995528;28;20019;-52
2022/01/21 02:29:10;;;;;;;10.48;4.47;;;1.90;99.90;;;;;;4995248;28;20026;-48
2022/01/21 02:31:37;;;;;;;10.40;4.40;;;1.90;99.90;;;;;;4994465;28;20022;-47
2022/01/21 02:34:04;;;;;;;12.52;4.75;;;1.90;99.90;;;;;;4995133;28;20031;-45
2022/01/21 02:36:30;;;;;;;15.07;5.15;;;1.90;99.90;;;;;;4995232;28;20030;-48
2022/01/21 02:38:56;;;;;;;12.95;4.80;;;1.90;99.90;;;;;;4995050;28;20438;-46
2022/01/21 02:41:23;;;;;;;12.65;5.97;;;1.90;99.90;;;;;;4994306;28;20026;-51
2022/01/21 02:43:48;;;;;;;12.35;4.50;;;2.00;99.90;;;;;;4995220;28;20101;-47
2022/01/21 02:46:16;;;;;;;11.43;6.22;;;2.00;99.90;;;;;;4995225;28;20102;-49
2022/01/21 02:48:42;;;;;;;12.55;4.65;;;2.10;99.90;;;;;;4995413;28;20098;-48
2022/01/21 02:51:11;;;;;;;15.93;5.22;;;2.00;99.90;;;;;;4994161;28;20037;-49
2022/01/21 02:56:16;;;;;;;17.77;9.85;;;2.00;99.90;;;;;;4994933;28;20057;-43
2022/01/21 02:58:44;;;;;;;11.70;5.35;;;2.00;99.90;;;;;;4994639;28;20105;-47
2022/01/21 03:01:11;;;;;;;17.95;5.57;;;2.00;99.90;;;;;;4993771;28;20056;-43
2022/01/21 03:03:37;;;;;;;9.25;4.90;;;1.90;99.90;;;;;;4976265;28;20073;-47
2022/01/21 03:06:03;;;;;;;10.63;5.03;;;2.00;99.90;;;;;;4994367;28;20030;-44
2022/01/21 03:08:29;;;;;;;14.75;5.40;;;2.00;99.90;;;;;;4994485;28;20567;-50
2022/01/21 03:10:56;;;;;;;15.18;6.07;;;2.00;99.90;;;;;;4993778;28;20030;-46
2022/01/21 03:13:22;;;;;;;21.10;6.43;;;2.00;99.90;;;;;;4977001;28;20045;-46
2022/01/21 03:15:52;;;;;;;17.48;6.03;;;2.10;99.90;;;;;;4994322;28;20085;-47
2022/01/21 03:18:19;;;;;;;15.27;5.45;;;2.10;99.90;;;;;;4976682;28;20027;-51
2022/01/21 03:20:45;;;;;;;16.70;6.72;;;2.10;99.90;;;;;;4993352;28;20113;-47
2022/01/21 03:23:15;;;;;;;16.38;5.03;;;2.10;99.90;;;;;;4994219;28;20464;-47
2022/01/21 03:25:42;;;;;;;21.38;6.78;;;2.00;99.90;;;;;;4994163;28;20034;-41
2022/01/21 03:28:08;;;;;;;14.40;5.32;;;2.10;99.90;;;;;;4994202;28;20045;-47
2022/01/21 03:30:34;;;;;;;13.38;5.93;;;2.00;99.90;;;;;;4993231;28;20045;-50
2022/01/21 03:33:00;;;;;;;10.02;5.00;;;2.20;99.90;;;;;;4993990;28;20489;-44
2022/01/21 03:35:25;;;;;;;17.45;7.57;;;2.20;99.90;;;;;;4976471;28;20041;-41
2022/01/21 03:37:51;;;;;;;13.45;5.55;;;2.20;99.90;;;;;;4993843;28;20034;-51
2022/01/21 03:40:17;;;;;;;11.82;5.38;;;2.10;99.90;;;;;;4993232;28;20409;-45
2022/01/21 03:42:42;;;;;;;11.73;5.13;;;2.20;99.90;;;;;;4993991;28;20019;-48
2022/01/21 03:45:09;;;;;;;13.48;5.30;;;2.20;99.90;;;;;;4992572;28;20473;-44
2022/01/21 03:47:34;;;;;;;15.10;6.13;;;2.30;99.90;;;;;;4992280;28;20022;-46
2022/01/21 03:50:18;;;;;;;14.88;5.50;;;2.30;99.90;;;;;;4991634;28;20085;-50
2022/01/21 03:52:44;;;;;;;15.00;5.97;;;2.30;99.90;;;;;;4990583;28;20047;-48
2022/01/21 03:55:10;;;;;;;11.95;5.30;;;2.20;99.90;;;;;;4992312;28;20429;-50
2022/01/21 03:57:35;;;;;;;17.80;5.13;;;2.30;99.90;;;;;;4992083;28;20019;-43
2022/01/21 04:00:04;;;;;;;19.25;5.90;;;2.30;99.90;;;;;;4989353;28;20105;-46
2022/01/21 04:02:29;;;;;;;11.35;4.93;;;2.30;99.90;;;;;;4992161;28;20030;-48
2022/01/21 04:04:55;;;;;;;8.35;4.70;;;2.50;99.90;;;;;;4992188;28;20025;-45
2022/01/21 04:07:20;;;;;;;14.18;5.13;;;2.50;99.90;;;;;;4969414;28;20019;-51
2022/01/21 04:09:47;;;;;;;12.00;5.20;;;2.50;99.90;;;;;;4991358;28;20118;-47
2022/01/21 04:12:12;;;;;;;18.42;5.72;;;2.40;99.90;;;;;;4992110;28;20468;-48
2022/01/21 04:14:38;;;;;;;15.88;6.00;;;2.40;99.90;;;;;;4991617;28;20058;-46
2022/01/21 04:17:04;;;;;;;15.57;5.68;;;2.40;99.90;;;;;;4991780;28;20101;-48
2022/01/21 04:19:30;;;;;;;14.50;5.72;;;2.40;99.90;;;;;;4991022;28;20058;-46
2022/01/21 04:21:55;;;;;;;17.52;5.90;;;2.30;99.90;;;;;;4991760;28;20058;-46
2022/01/21 04:24:21;;;;;;;14.48;6.22;;;2.30;99.90;;;;;;4974304;28;20105;-44
2022/01/21 04:26:46;;;;;;;11.75;5.60;;;2.30;99.90;;;;;;4991688;28;20046;-45
2022/01/21 04:29:12;;;;;;;15.82;5.28;;;2.30;99.90;;;;;;4991168;28;20034;-47
2022/01/21 04:31:37;;;;;;;19.35;6.45;;;2.30;99.90;;;;;;4991622;28;20025;-48
2022/01/21 04:34:03;;;;;;;12.80;6.28;;;2.30;99.90;;;;;;4991970;28;20049;-46
2022/01/21 04:36:28;;;;;;;12.00;5.00;;;2.30;99.90;;;;;;4991620;28;20031;-44
2022/01/21 04:38:57;;;;;;;17.55;7.05;;;2.30;99.90;;;;;;4991691;28;20034;-44
2022/01/21 04:49:36;;;;;;;11.52;5.35;;;2.30;99.90;;;;;;4991919;28;20412;-50
2022/01/21 04:52:03;;;;;;;30.98;13.85;;;2.50;99.90;;;;;;4992661;28;20022;-45
2022/01/21 04:54:30;;;;;;;17.42;6.05;;;2.40;99.90;;;;;;4992670;28;20026;-45
2022/01/21 04:56:56;;;;;;;21.23;5.70;;;2.40;99.90;;;;;;4992435;28;20022;-45
2022/01/21 04:59:22;;;;;;;11.52;5.63;;;2.40;99.90;;;;;;4991611;28;20030;-47
2022/01/21 05:01:47;;;;;;;14.07;6.30;;;2.50;99.90;;;;;;5004288;23;20069;-48
2022/01/21 05:04:13;;;;;;;15.88;6.10;;;2.50;99.90;;;;;;4994427;28;20029;-51
2022/01/21 05:06:40;;;;;;;10.85;6.38;;;2.50;99.90;;;;;;5011969;28;20022;-52
2022/01/21 05:09:06;;;;;;;13.07;6.70;;;2.50;99.90;;;;;;5011746;28;20064;-52
2022/01/21 05:11:36;;;;;;;19.52;6.32;;;2.40;99.90;;;;;;5000459;28;20505;-54
2022/01/21 05:14:14;;;;;;;12.40;6.40;;;2.40;99.90;;;;;;4992149;28;20038;-55
2022/01/21 05:16:46;;;;;;;16.42;6.40;;;2.40;99.90;;;;;;4974811;28;20130;-52
2022/01/21 05:19:15;;;;;;;16.52;6.53;;;2.40;99.90;;;;;;4991885;28;20027;-52
2022/01/21 05:21:42;;;;;;;18.83;6.50;;;2.40;99.90;;;;;;4991851;28;20018;-54
2022/01/21 05:24:08;;;;;;;12.35;6.95;;;2.40;99.90;;;;;;4974555;28;20081;-52
2022/01/21 05:26:39;;;;;;;15.10;7.40;;;2.40;99.90;;;;;;4995463;28;20521;-53
2022/01/21 05:29:09;;;;;;;11.38;7.25;;;2.40;99.90;;;;;;4998617;28;20121;-51
2022/01/21 05:31:35;;;;;;;19.25;7.35;;;2.50;99.90;;;;;;4997811;28;20022;-50
2022/01/21 05:34:01;;;;;;;20.13;7.85;;;2.50;99.90;;;;;;4998401;28;20033;-53
2022/01/21 05:36:28;;;;;;;18.42;7.18;;;2.40;99.90;;;;;;4998471;28;20104;-53
2022/01/21 05:38:54;;;;;;;19.33;7.53;;;2.40;99.90;;;;;;4998551;28;20030;-51
2022/01/21 05:41:22;;;;;;;20.83;7.82;;;2.40;99.90;;;;;;4997801;28;20397;-54
2022/01/21 05:43:49;;;;;;;19.83;7.85;;;2.40;99.90;;;;;;4998700;28;20101;-51
2022/01/21 05:46:46;;;;;;;19.10;6.88;;;2.40;99.90;;;;;;4998726;28;20102;-47
2022/01/21 05:49:14;;;;;;;20.92;7.95;;;2.30;99.90;;;;;;4997682;28;20029;-48
2022/01/21 05:51:40;;;;;;;19.17;7.10;;;2.20;99.90;;;;;;4998142;28;20018;-51
2022/01/21 05:54:08;;;;;;;18.50;7.00;;;2.20;99.90;;;;;;4980790;28;20032;-49
2022/01/21 05:56:34;;;;;;;19.58;7.95;;;2.10;99.90;;;;;;4998325;28;20046;-54
2022/01/21 05:59:00;;;;;;;14.93;8.00;;;2.10;99.90;;;;;;4980707;28;20068;-50
2022/01/21 06:01:26;;;;;;;24.33;9.10;;;2.10;99.90;;;;;;4979805;28;20038;-52
2022/01/21 06:03:52;;;;;;;11.60;7.22;;;2.10;99.90;;;;;;4998200;28;20014;-54
2022/01/21 06:06:18;;;;;;;21.75;7.57;;;2.00;99.90;;;;;;4998188;28;20080;-49
2022/01/21 06:08:43;;;;;;;16.70;7.43;;;2.00;99.90;;;;;;4980736;28;20081;-50
2022/01/21 06:11:09;;;;;;;20.92;8.27;;;2.00;99.90;;;;;;4997220;28;20030;-52
2022/01/21 06:13:35;;;;;;;16.25;7.93;;;2.10;99.90;;;;;;4998623;28;20096;-52
2022/01/21 06:16:01;;;;;;;16.52;8.73;;;2.10;99.90;;;;;;4998090;28;20095;-53
2022/01/21 06:18:26;;;;;;;16.98;8.18;;;2.00;99.90;;;;;;4998148;28;20093;-53
2022/01/21 06:20:52;;;;;;;17.42;8.52;;;2.00;99.90;;;;;;4979591;28;20058;-51
2022/01/21 06:23:18;;;;;;;20.58;9.07;;;1.90;99.90;;;;;;4998197;28;20225;-52
2022/01/21 06:25:43;;;;;;;24.65;8.20;;;1.90;99.90;;;;;;4998561;28;20042;-51
2022/01/21 06:28:09;;;;;;;18.35;8.02;;;1.90;99.90;;;;;;4997791;28;20023;-52
2022/01/21 06:30:35;;;;;;;21.95;8.48;;;1.80;99.90;;;;;;4997176;28;20030;-53
2022/01/21 06:33:00;;;;;;;15.95;7.60;;;1.80;99.90;;;;;;4998338;28;20062;-52
2022/01/21 06:35:26;;;;;;;17.35;7.47;;;1.90;99.90;;;;;;4981208;28;20029;-53
2022/01/21 06:37:52;;;;;;;20.08;7.53;;;2.00;99.90;;;;;;4996457;28;20026;-55
2022/01/21 06:40:20;;;;;;;18.40;7.60;;;2.00;99.90;;;;;;4976579;28;20029;-56
2022/01/21 06:42:49;;;;;;;16.40;8.07;;;2.20;99.90;;;;;;4994625;28;20385;-52
2022/01/21 06:45:15;;;;;;;20.20;7.60;;;2.20;99.90;;;;;;4995261;28;20088;-50
2022/01/21 06:47:41;;;;;;;19.83;8.60;;;2.20;99.90;;;;;;4977504;28;20023;-52
2022/01/21 06:50:07;;;;;;;16.88;7.97;;;2.20;99.90;;;;;;4993951;28;20023;-54
2022/01/21 06:52:33;;;;;;;23.85;8.45;;;2.20;99.90;;;;;;4994606;28;20327;-55
2022/01/21 06:54:59;;;;;;;23.90;8.02;;;2.20;99.90;;;;;;4994544;28;20053;-55
2022/01/21 06:57:25;;;;;;;25.52;10.50;;;2.10;99.90;;;;;;4977237;28;20026;-50
2022/01/21 06:59:51;;;;;;;17.00;8.75;;;2.10;99.90;;;;;;4993557;28;20026;-54
2022/01/21 07:02:20;;;;;;;17.77;7.95;;;2.10;99.90;;;;;;4994477;28;20133;-53
2022/01/21 07:04:49;;;;;;;17.15;8.13;;;2.10;99.90;;;;;;4976714;28;20040;-54
2022/01/21 07:07:16;;;;;;;13.07;7.93;;;2.20;99.90;;;;;;4994597;28;20092;-53
2022/01/21 07:09:43;;;;;;;17.83;8.45;;;2.20;99.90;;;;;;4993660;28;20026;-53
2022/01/21 07:12:09;;;;;;;20.85;9.25;;;2.20;99.90;;;;;;4977144;28;20444;-54
2022/01/21 07:14:35;;;;;;;22.08;8.80;;;2.20;99.90;;;;;;4994302;28;20030;-53
2022/01/21 07:17:00;;;;;;;25.70;8.25;;;2.30;99.90;;;;;;4977802;28;20026;-51
2022/01/21 07:19:26;;;;;;;21.10;8.70;;;2.40;99.90;;;;;;4993934;28;20030;-54
2022/01/21 07:21:52;;;;;;;22.30;8.32;;;2.50;99.90;;;;;;4994029;28;20029;-50
2022/01/21 07:24:17;;;;;;;17.73;8.77;;;2.40;99.90;;;;;;4994045;28;20054;-50
2022/01/21 07:26:43;;;;;;;18.85;9.40;;;2.40;99.90;;;;;;4976568;28;20393;-48
2022/01/21 07:29:08;;;;;;;18.48;8.98;;;2.50;99.90;;;;;;4976571;28;20022;-53
2022/01/21 07:31:34;;;;;;;27.48;9.57;;;2.60;99.90;;;;;;4993166;28;20026;-49
2022/01/21 07:34:04;;;;;;;24.60;11.38;;;2.60;99.90;;;;;;4994294;28;20026;-50
2022/01/21 07:36:30;;;;;;;20.88;10.18;;;2.60;99.90;;;;;;4993902;28;20027;-49
2022/01/21 07:38:56;;;;;;;23.65;8.90;;;2.60;99.90;;;;;;4993661;28;20026;-54
2022/01/21 07:41:21;;;;;;;19.77;9.18;;;2.60;99.90;;;;;;4992813;28;20088;-53
2022/01/21 07:43:47;;;;;;;16.40;8.45;;;2.50;99.90;;;;;;4993850;28;20445;-53
2022/01/21 07:46:12;;;;;;;18.15;9.40;;;2.40;99.90;;;;;;4976320;28;20023;-51
2022/01/21 07:48:38;;;;;;;22.77;9.55;;;2.50;99.90;;;;;;4993464;28;20030;-53
2022/01/21 07:51:03;;;;;;;21.35;8.45;;;2.60;99.90;;;;;;4975254;28;20077;-53
2022/01/21 07:53:29;;;;;;;20.83;8.05;;;2.70;99.90;;;;;;4975938;28;20049;-48
2022/01/21 07:55:54;;;;;;;18.25;9.38;;;2.80;99.90;;;;;;4975840;28;20080;-51
2022/01/21 07:58:20;;;;;;;19.27;8.60;;;2.80;99.90;;;;;;4993144;28;20030;-51
2022/01/21 08:00:46;;;;;;;20.40;9.45;;;2.80;99.90;;;;;;4992365;28;20030;-56
2022/01/21 08:03:12;;;;;;;18.15;8.27;;;2.90;99.90;;;;;;4993329;28;20401;-54
2022/01/21 08:05:38;;;;;;;15.68;8.13;;;3.00;99.90;;;;;;4993302;28;20101;-55
2022/01/21 08:08:04;;;;;;;28.85;8.38;;;3.00;99.90;;;;;;4993254;28;20073;-51
2022/01/21 08:10:31;;;;;;;17.80;8.15;;;3.00;99.90;;;;;;4992342;28;20037;-52
2022/01/21 08:12:57;;;;;;;22.23;8.10;;;3.20;99.90;;;;;;4993160;28;20030;-54
2022/01/21 08:15:22;;;;;;;26.38;8.73;;;3.10;99.90;;;;;;4975661;28;20113;-50
2022/01/21 08:17:48;;;;;;;16.63;8.20;;;3.10;99.90;;;;;;4993050;28;20429;-52
2022/01/21 08:20:14;;;;;;;23.17;9.30;;;3.20;99.90;;;;;;4974820;28;20037;-51
2022/01/21 08:22:39;;;;;;;21.63;7.32;;;3.30;99.90;;;;;;4992998;28;20019;-54
2022/01/21 08:25:08;;;;;;;20.58;9.15;;;3.20;99.90;;;;;;4992987;28;20026;-52
2022/01/21 08:27:34;;;;;;;19.27;8.40;;;3.30;99.90;;;;;;4993874;28;20019;-56
2022/01/21 08:29:59;;;;;;;17.58;8.02;;;3.40;99.90;;;;;;4994083;28;20034;-55
2022/01/21 08:32:25;;;;;;;18.08;8.52;;;3.50;99.90;;;;;;4993942;28;20074;-52
2022/01/21 08:34:51;;;;;;;20.63;8.57;;;3.50;99.90;;;;;;4992918;28;20026;-50
2022/01/21 08:37:18;;;;;;;31.05;8.50;;;3.50;99.90;;;;;;4992905;28;20085;-51
2022/01/21 08:39:43;;;;;;;27.58;10.82;;;3.50;99.90;;;;;;4991787;28;20050;-50
2022/01/21 08:42:10;;;;;;;23.73;8.82;;;3.50;99.90;;;;;;4992892;28;20046;-54
2022/01/21 08:44:36;;;;;;;30.27;10.07;;;3.50;99.90;;;;;;4992860;28;20101;-54
2022/01/21 08:47:02;;;;;;;20.65;7.97;;;3.60;99.90;;;;;;4992931;28;20069;-49
2022/01/21 08:49:28;;;;;;;19.10;7.70;;;3.60;99.90;;;;;;4970838;28;20102;-52
2022/01/21 08:51:56;;;;;;;15.38;7.35;;;3.60;99.90;;;;;;4976420;28;20105;-49
2022/01/21 08:54:23;;;;;;;22.55;8.43;;;3.70;99.90;;;;;;4976738;28;20022;-48
2022/01/21 08:56:50;;;;;;;21.33;8.50;;;3.50;99.90;;;;;;4992399;28;20034;-48
2022/01/21 08:59:17;;;;;;;18.40;8.75;;;3.60;99.90;;;;;;4992925;28;20037;-45
2022/01/21 09:01:46;;;;;;;18.85;7.88;;;3.80;99.90;;;;;;4995834;28;20433;-50
2022/01/21 09:04:12;;;;;;;25.50;8.15;;;3.80;99.90;;;;;;4987929;28;20084;-54
2022/01/21 09:06:38;;;;;;;20.98;7.97;;;3.90;99.90;;;;;;4991382;28;20026;-52
2022/01/21 09:09:04;;;;;;;16.85;6.68;;;4.00;99.90;;;;;;4991373;28;20073;-46
2022/01/21 09:11:30;;;;;;;12.60;7.55;;;4.20;99.90;;;;;;4990827;28;20180;-53
2022/01/21 09:13:56;;;;;;;22.95;7.38;;;4.70;99.90;;;;;;4991124;28;20065;-47
2022/01/21 09:16:22;;;;;;;18.77;7.60;;;5.50;99.90;;;;;;4992139;28;20057;-50
2022/01/21 09:18:50;;;;;;;22.02;8.18;;;5.90;99.90;;;;;;4991750;28;20116;-48
2022/01/21 09:21:21;;;;;;;17.15;7.03;;;5.90;99.90;;;;;;4990837;28;20105;-49
2022/01/21 09:23:49;;;;;;;16.55;7.57;;;5.70;99.90;;;;;;4991699;28;20088;-50
2022/01/21 09:26:16;;;;;;;27.90;7.05;;;5.50;99.90;;;;;;4989591;28;20393;-49
2022/01/21 09:28:42;;;;;;;18.50;6.75;;;5.30;99.90;;;;;;4963504;28;20029;-49
2022/01/21 09:31:08;;;;;;;16.02;7.38;;;5.10;99.90;;;;;;4990594;28;20405;-49
2022/01/21 09:33:34;;;;;;;14.55;7.03;;;4.90;99.90;;;;;;4965696;28;20042;-47
2022/01/21 09:35:59;;;;;;;11.70;6.35;;;4.70;99.90;;;;;;4955299;28;20058;-51
2022/01/21 09:38:26;;;;;;;23.42;6.93;;;4.70;99.90;;;;;;4972811;28;20031;-48
2022/01/21 09:40:52;;;;;;;17.27;7.43;;;4.50;99.90;;;;;;4954391;28;20026;-47
2022/01/21 09:43:20;;;;;;;18.13;6.65;;;4.50;99.90;;;;;;4972610;28;20512;-50
2022/01/21 09:45:56;;;;;;;24.33;6.88;;;4.50;99.90;;;;;;4972386;28;20031;-49
2022/01/21 09:48:25;;;;;;;17.10;7.53;;;4.50;99.90;;;;;;4972680;28;20027;-48
2022/01/21 09:50:57;;;;;;;20.00;6.40;;;4.50;99.90;;;;;;4971461;28;20030;-48
2022/01/21 09:53:31;;;;;;;28.02;7.63;;;4.40;99.90;;;;;;4972483;28;20022;-49
2022/01/21 09:55:59;;;;;;;20.67;7.35;;;4.50;99.90;;;;;;4972341;28;20498;-50
2022/01/21 09:58:27;;;;;;;15.77;6.90;;;4.50;99.90;;;;;;4971265;28;20106;-46
2022/01/21 10:00:54;;;;;;;17.80;6.82;;;4.50;99.90;;;;;;4954081;28;20435;-47
2022/01/21 10:03:22;;;;;;;17.73;7.25;;;4.50;99.90;;;;;;4972390;28;20023;-48
2022/01/21 10:05:49;;;;;;;15.70;6.13;;;4.50;99.90;;;;;;4972391;28;20019;-49
2022/01/21 10:08:15;;;;;;;20.98;7.30;;;4.70;99.90;;;;;;4954892;28;20033;-51
2022/01/21 10:10:42;;;;;;;19.45;8.63;;;4.80;99.90;;;;;;4953826;28;20031;-50
2022/01/21 10:13:09;;;;;;;19.23;5.90;;;5.10;99.90;;;;;;4974566;28;20089;-51
2022/01/21 10:15:36;;;;;;;15.30;5.30;;;5.70;99.90;;;;;;4975852;28;20065;-48
2022/01/21 10:18:12;;;;;;;15.27;5.28;;;6.50;99.90;;;;;;4975889;28;20023;-47
2022/01/21 10:20:38;;;;;;;13.90;5.18;;;6.90;99.90;;;;;;4974944;28;20541;-47
2022/01/21 10:23:08;;;;;;;13.27;5.28;;;7.30;99.90;;;;;;4958497;28;20077;-48
2022/01/21 10:25:36;;;;;;;10.48;4.30;;;7.50;99.90;;;;;;4976015;28;20022;-48
2022/01/21 10:28:17;;;;;;;8.88;5.10;;;7.40;99.90;;;;;;4975789;28;20029;-46
2022/01/21 10:30:44;;;;;;;14.32;5.53;;;7.20;99.90;;;;;;4974909;28;20027;-46
2022/01/21 10:33:20;;;;;;;11.15;5.38;;;7.00;99.90;;;;;;4975624;28;20564;-47
2022/01/21 10:35:49;;;;;;;11.60;5.47;;;6.60;99.90;;;;;;4958201;28;20117;-46
2022/01/21 10:38:28;;;;;;;14.93;5.55;;;6.40;99.90;;;;;;4958005;28;20058;-47
2022/01/21 10:41:06;;;;;;;14.70;5.03;;;6.20;99.90;;;;;;4974859;28;20106;-48
2022/01/21 10:43:32;;;;;;;17.48;4.60;;;6.00;99.90;;;;;;4958156;28;20117;-46
2022/01/21 10:45:59;;;;;;;13.30;5.70;;;5.80;99.90;;;;;;4958079;28;20023;-50
2022/01/21 10:48:28;;;;;;;9.55;4.70;;;5.70;99.90;;;;;;4958014;28;20530;-50
2022/01/21 10:51:17;;;;;;;15.68;5.50;;;5.50;99.90;;;;;;4974482;28;20027;-51
2022/01/21 10:53:46;;;;;;;9.48;5.32;;;5.20;99.90;;;;;;4975162;28;20486;-48
2022/01/21 10:56:15;;;;;;;13.98;5.70;;;5.30;99.90;;;;;;4975427;28;20084;-48
2022/01/21 10:58:43;;;;;;;12.27;5.10;;;5.30;99.90;;;;;;4957633;28;20421;-48
2022/01/21 11:01:13;;;;;;;12.07;5.13;;;5.30;99.90;;;;;;4999230;23;20035;-46
2022/01/21 11:04:05;;;;;;;9.02;4.57;;;5.40;99.90;;;;;;4977538;28;20058;-41
2022/01/21 11:06:47;;;;;;;14.68;5.47;;;5.50;99.90;;;;;;4988456;28;20018;-41
2022/01/21 11:09:15;;;;;;;11.35;5.07;;;5.70;99.90;;;;;;4992049;28;20393;-41
2022/01/21 11:11:42;;;;;;;11.15;4.88;;;5.90;99.90;;;;;;4970823;28;20031;-46
2022/01/21 11:14:14;;;;;;;14.60;5.50;;;6.00;99.90;;;;;;4955610;29;20115;-48
2022/01/21 11:16:43;;;;;;;17.75;5.13;;;6.00;99.90;;;;;;4937363;28;20122;-48
2022/01/21 11:19:12;;;;;;;12.60;4.93;;;5.90;99.90;;;;;;4955550;29;20490;-44
2022/01/21 11:21:44;;;;;;;8.43;5.22;;;5.70;99.90;;;;;;4959496;28;20069;-50
2022/01/21 11:24:10;;;;;;;10.15;5.60;;;5.70;99.90;;;;;;4974200;28;20029;-51
2022/01/21 11:26:36;;;;;;;13.98;5.35;;;5.70;99.90;;;;;;4974639;28;20035;-51
2022/01/21 11:29:03;;;;;;;15.95;5.38;;;5.60;99.90;;;;;;4974395;28;20027;-44
2022/01/21 11:31:30;;;;;;;15.27;5.00;;;5.60;99.90;;;;;;4974404;28;20026;-44
2022/01/21 11:33:55;;;;;;;18.33;4.90;;;5.50;99.90;;;;;;4975260;28;20030;-49
2022/01/21 11:36:21;;;;;;;10.57;6.18;;;5.50;99.90;;;;;;4967083;28;20036;-51
2022/01/21 11:38:49;;;;;;;15.45;5.60;;;5.50;99.90;;;;;;4955661;29;20027;-51
2022/01/21 11:41:15;;;;;;;10.70;6.25;;;5.50;99.90;;;;;;4958773;28;20029;-47
2022/01/21 11:43:50;;;;;;;15.38;5.57;;;5.50;99.90;;;;;;4976655;28;20019;-47
2022/01/21 11:46:20;;;;;;;12.88;5.95;;;5.50;99.90;;;;;;4970796;28;20024;-47
2022/01/21 11:48:50;;;;;;;13.85;5.68;;;5.60;99.90;;;;;;4986075;28;20025;-52
2022/01/21 11:51:26;;;;;;;11.73;5.63;;;5.50;99.90;;;;;;4973856;28;20031;-51
2022/01/21 11:54:13;;;;;;;23.55;5.55;;;5.60;99.90;;;;;;4987393;28;20513;-47
2022/01/21 11:56:46;;;;;;;11.25;5.07;;;5.60;99.90;;;;;;4964845;28;20031;-45
2022/01/21 11:59:47;;;;;;;15.23;5.20;;;5.50;99.90;;;;;;4966116;28;20031;-50
2022/01/21 12:02:15;;;;;;;14.10;5.10;;;5.60;99.90;;;;;;4954469;28;20082;-42
2022/01/21 12:04:41;;;;;;;16.00;5.97;;;5.50;99.90;;;;;;4937675;29;20023;-43
2022/01/21 12:07:26;;;;;;;10.38;4.75;;;5.50;99.90;;;;;;4954729;29;20103;-48
2022/01/21 12:10:00;;;;;;;11.07;5.60;;;5.50;99.90;;;;;;4955580;28;20028;-46
2022/01/21 12:12:44;;;;;;;10.88;4.75;;;5.60;99.90;;;;;;4955900;28;20038;-50
2022/01/21 12:15:20;;;;;;;10.50;4.32;;;5.50;99.90;;;;;;4973697;28;20019;-49
2022/01/21 12:17:51;;;;;;;12.98;5.28;;;5.50;99.90;;;;;;4967036;28;20027;-47
2022/01/21 12:20:17;;;;;;;10.65;4.80;;;5.40;99.90;;;;;;4953431;29;20070;-43
2022/01/21 12:22:43;;;;;;;15.05;4.68;;;5.30;99.90;;;;;;4954084;29;20028;-50
2022/01/21 12:25:10;;;;;;;9.57;5.05;;;5.30;99.90;;;;;;4936967;29;20038;-45
2022/01/21 12:27:38;;;;;;;25.85;5.65;;;5.30;99.90;;;;;;4937185;29;20027;-43
2022/01/21 12:30:27;;;;;;;13.98;5.15;;;5.40;99.90;;;;;;4962863;28;20031;-48
2022/01/21 12:32:57;;;;;;;14.95;4.47;;;5.50;99.90;;;;;;4972932;28;20034;-47
2022/01/21 12:35:23;;;;;;;7.90;4.30;;;5.60;99.90;;;;;;4969175;28;20023;-47
2022/01/21 12:39:05;;;;;;;11.27;3.58;;;5.60;99.90;;;;;;4953952;29;20073;-46
2022/01/21 12:41:19;;;;;;;5.57;3.65;;;5.50;99.90;;;;;;4966318;28;20524;-45
2022/01/21 12:43:49;;;;;;;5.78;3.72;;;5.40;99.90;;;;;;4965219;28;20042;-46
2022/01/21 12:46:28;;;;;;;8.88;3.50;;;5.50;99.90;;;;;;4972526;28;20438;-45
2022/01/21 12:48:56;;;;;;;7.72;3.47;;;5.50;99.90;;;;;;4971140;28;20019;-45
2022/01/21 12:56:45;;;;;;;9.52;3.33;;;5.70;99.90;;;;;;4972911;28;20042;-45
2022/01/21 12:59:19;;;;;;;12.27;3.45;;;5.70;99.90;;;;;;4960794;28;20417;-50
2022/01/21 13:01:46;;;;;;;11.45;3.05;;;5.80;99.90;;;;;;4953486;29;20058;-47
2022/01/21 13:04:46;;;;;;;6.35;3.60;;;5.80;99.90;;;;;;4945488;28;20371;-45
2022/01/21 13:07:18;;;;;;;5.43;2.67;;;5.70;99.90;;;;;;4955547;28;20038;-45
2022/01/21 13:10:03;;;;;;;11.65;3.22;;;5.80;99.90;;;;;;4972235;28;20037;-47
2022/01/21 13:30:07;;;;;;;5.80;2.80;;;5.60;99.90;;;;;;5010106;28;20076;-51
2022/01/21 13:32:33;;;;;;;273.10;150.82;;;5.70;99.90;;;;;;5011739;28;20034;-54
2022/01/21 13:35:09;;;;;;;14.55;11.35;;;5.60;99.90;;;;;;4995364;28;20037;-48
2022/01/21 13:37:36;;;;;;;5.05;2.75;;;5.60;99.90;;;;;;4991642;28;20033;-48
2022/01/21 13:40:05;;;;;;;9.18;3.30;;;5.60;99.90;;;;;;5013662;23;20205;-47
2022/01/21 13:42:31;;;;;;;4.85;2.40;;;5.50;99.90;;;;;;4998691;28;20114;-52
2022/01/21 13:45:04;;;;;;;7.20;3.03;;;5.50;99.90;;;;;;4989851;28;20482;-48
2022/01/21 13:47:39;;;;;;;6.13;3.08;;;5.50;99.90;;;;;;4975038;28;20030;-50
2022/01/21 13:50:19;;;;;;;8.30;3.30;;;5.40;99.90;;;;;;4983973;28;20057;-50
2022/01/21 13:52:48;;;;;;;10.75;3.13;;;5.40;99.90;;;;;;4976079;28;20031;-50
2022/01/21 13:55:25;;;;;;;7.28;3.25;;;5.30;99.90;;;;;;4958892;28;20033;-52
2022/01/21 13:57:52;;;;;;;5.18;3.33;;;5.30;99.90;;;;;;4976331;28;20102;-49